Time;durP1;ratioP1;P1;durP2;ratioP2;P2;SDS_P1;SDS_P2;PMS_P1;PMS_P2;Temp;Humidity;BMP_temperature;BMP_pressure;BME280_temperature;BME280_humidity;BME280_pressure;Samples;Min_cycle;Max_cycle;Signal;HPM_P1;HPM_P2
2021/08/09 00:01:35;;;;;;;3.47;2.37;;;15.40;84.70;;;;;;5049912;28;20194;-74
2021/08/09 00:04:03;;;;;;;1.97;1.80;;;15.40;84.60;;;;;;5043639;28;20789;-75
2021/08/09 00:06:29;;;;;;;4.23;2.50;;;15.40;83.80;;;;;;5042562;28;20910;-74
2021/08/09 00:08:55;;;;;;;4.37;2.50;;;15.50;84.00;;;;;;5047756;28;20439;-74
2021/08/09 00:11:20;;;;;;;5.20;2.70;;;15.60;84.00;;;;;;5046349;28;20191;-75
2021/08/09 00:13:47;;;;;;;4.13;2.37;;;15.60;83.80;;;;;;5043821;28;20442;-75
2021/08/09 00:16:13;;;;;;;7.90;3.00;;;15.50;83.70;;;;;;5045456;28;20283;-75
2021/08/09 00:18:42;;;;;;;4.90;2.97;;;15.50;84.00;;;;;;5048461;28;21073;-75
2021/08/09 00:21:08;;;;;;;9.40;2.67;;;15.60;84.10;;;;;;5043285;28;20420;-74
2021/08/09 00:23:34;;;;;;;3.43;2.30;;;15.60;84.00;;;;;;5047062;28;20444;-74
2021/08/09 00:26:00;;;;;;;5.97;3.07;;;15.60;84.00;;;;;;5040956;28;20468;-75
2021/08/09 00:28:26;;;;;;;6.00;2.60;;;15.50;84.70;;;;;;5045231;28;20415;-74
2021/08/09 00:30:51;;;;;;;5.03;2.47;;;15.50;84.60;;;;;;5047643;28;20189;-74
2021/08/09 00:33:17;;;;;;;3.60;2.50;;;15.50;84.60;;;;;;5048631;28;20510;-75
2021/08/09 00:35:43;;;;;;;9.33;2.97;;;15.60;83.40;;;;;;5045655;28;20736;-74
2021/08/09 00:38:09;;;;;;;4.10;2.60;;;15.50;83.60;;;;;;5040954;28;20223;-75
2021/08/09 00:40:34;;;;;;;4.87;3.00;;;15.50;84.60;;;;;;5051986;28;20200;-74
2021/08/09 00:43:00;;;;;;;3.80;2.40;;;15.60;84.90;;;;;;5051868;28;20180;-74
2021/08/09 00:45:27;;;;;;;3.90;2.50;;;15.60;84.40;;;;;;5047417;28;20573;-75
2021/08/09 00:47:53;;;;;;;3.90;2.20;;;15.60;84.00;;;;;;5050256;28;20184;-73
2021/08/09 00:50:19;;;;;;;5.83;2.50;;;15.60;84.40;;;;;;5043749;28;20509;-73
2021/08/09 00:52:45;;;;;;;4.00;2.43;;;15.60;84.30;;;;;;5043109;28;20189;-74
2021/08/09 00:55:11;;;;;;;5.33;2.80;;;15.60;84.40;;;;;;5046107;28;20718;-74
2021/08/09 00:57:37;;;;;;;6.50;2.20;;;15.50;83.70;;;;;;5046133;28;20553;-74
2021/08/09 01:00:04;;;;;;;3.87;2.30;;;15.50;83.60;;;;;;5041750;28;20209;-74
2021/08/09 01:02:30;;;;;;;2.67;2.37;;;15.50;83.60;;;;;;5045304;28;20853;-74
2021/08/09 01:04:59;;;;;;;7.10;2.53;;;15.50;83.00;;;;;;5040007;28;20517;-74
2021/08/09 01:07:30;;;;;;;4.27;2.33;;;15.50;82.50;;;;;;5044632;28;20426;-74
2021/08/09 01:10:11;;;;;;;5.23;2.50;;;15.50;82.20;;;;;;5045967;28;20451;-75
2021/08/09 01:13:00;;;;;;;4.37;2.33;;;15.40;82.50;;;;;;5035784;28;20530;-75
2021/08/09 01:15:35;;;;;;;2.80;2.17;;;15.40;82.80;;;;;;5043690;28;20796;-74
2021/08/09 01:18:03;;;;;;;2.83;1.93;;;15.30;83.30;;;;;;5046514;28;20516;-74
2021/08/09 01:20:49;;;;;;;2.87;2.10;;;15.30;83.40;;;;;;5036567;28;20458;-74
2021/08/09 01:23:45;;;;;;;3.70;2.50;;;15.30;83.00;;;;;;5043847;28;20440;-74
2021/08/09 01:26:42;;;;;;;6.20;2.10;;;15.30;82.80;;;;;;5039220;28;20420;-74
2021/08/09 01:29:13;;;;;;;4.57;2.40;;;15.30;82.70;;;;;;5048438;28;20439;-76
2021/08/09 01:31:47;;;;;;;5.47;2.37;;;15.30;82.70;;;;;;5046705;28;20428;-76
2021/08/09 01:34:14;;;;;;;3.40;2.30;;;15.30;82.70;;;;;;5041515;28;20469;-74
2021/08/09 01:36:48;;;;;;;4.13;2.30;;;15.20;83.00;;;;;;5044488;28;20435;-74
2021/08/09 01:39:16;;;;;;;5.40;2.30;;;15.20;83.30;;;;;;5042906;28;20480;-74
2021/08/09 01:41:43;;;;;;;3.97;2.20;;;15.20;83.30;;;;;;5044292;28;20422;-75
2021/08/09 01:44:09;;;;;;;4.80;2.50;;;15.10;83.70;;;;;;5050711;28;21124;-75
2021/08/09 01:46:37;;;;;;;5.13;2.37;;;15.00;84.00;;;;;;5044279;28;20407;-75
2021/08/09 01:49:05;;;;;;;8.60;3.20;;;15.00;84.30;;;;;;5046230;28;21159;-74
2021/08/09 01:51:33;;;;;;;4.20;2.40;;;15.10;84.10;;;;;;5035331;28;20419;-74
2021/08/09 01:54:00;;;;;;;3.73;2.27;;;15.00;84.10;;;;;;5049236;28;20900;-75
2021/08/09 01:56:26;;;;;;;2.87;1.93;;;14.90;84.70;;;;;;5053810;28;20439;-75
2021/08/09 01:58:52;;;;;;;5.60;2.30;;;14.90;84.70;;;;;;5044601;28;20467;-76
2021/08/09 02:01:19;;;;;;;3.40;2.37;;;14.90;85.00;;;;;;5046528;28;20427;-75
2021/08/09 02:03:45;;;;;;;3.37;2.30;;;14.90;85.30;;;;;;5050597;28;20196;-75
2021/08/09 02:06:11;;;;;;;4.33;2.50;;;14.90;85.50;;;;;;5047059;28;21006;-75
2021/08/09 02:08:37;;;;;;;2.90;1.93;;;14.90;85.70;;;;;;5040644;28;20549;-74
2021/08/09 02:11:13;;;;;;;4.50;2.77;;;14.90;85.90;;;;;;5045943;28;20195;-75
2021/08/09 02:13:50;;;;;;;4.13;2.67;;;14.90;86.00;;;;;;5044093;28;20422;-74
2021/08/09 02:16:22;;;;;;;9.67;2.23;;;14.90;85.90;;;;;;5045957;28;20423;-74
2021/08/09 02:18:59;;;;;;;4.27;2.53;;;14.90;86.00;;;;;;5049215;28;20468;-74
2021/08/09 02:21:48;;;;;;;3.10;2.20;;;14.90;86.00;;;;;;5041685;28;20419;-74
2021/08/09 02:24:58;;;;;;;4.03;2.37;;;14.90;86.00;;;;;;5050767;28;20469;-74
2021/08/09 02:27:33;;;;;;;5.50;2.73;;;14.90;86.20;;;;;;5047742;28;20494;-75
2021/08/09 02:30:00;;;;;;;3.63;2.53;;;14.80;86.30;;;;;;5027374;28;20980;-75
2021/08/09 02:32:30;;;;;;;3.70;2.10;;;14.80;86.50;;;;;;5036216;28;20490;-75
2021/08/09 02:34:57;;;;;;;7.03;2.70;;;14.80;86.50;;;;;;5059151;28;20467;-75
2021/08/09 02:37:25;;;;;;;7.17;2.87;;;14.80;86.60;;;;;;5031001;28;20467;-75
2021/08/09 02:39:51;;;;;;;3.47;2.20;;;14.80;86.80;;;;;;5034649;28;20904;-75
2021/08/09 02:42:17;;;;;;;6.90;2.80;;;14.80;86.80;;;;;;5042128;28;20420;-75
2021/08/09 02:44:43;;;;;;;4.17;2.57;;;14.70;86.90;;;;;;5041481;28;20449;-75
2021/08/09 02:47:11;;;;;;;3.70;2.40;;;14.70;87.00;;;;;;5030621;28;20431;-75
2021/08/09 02:49:41;;;;;;;3.40;2.37;;;14.60;87.30;;;;;;5042593;28;20617;-75
2021/08/09 02:52:08;;;;;;;3.43;2.37;;;14.60;87.30;;;;;;5045521;28;20523;-76
2021/08/09 02:54:35;;;;;;;4.07;2.50;;;14.60;87.10;;;;;;5047951;28;20483;-75
2021/08/09 02:57:02;;;;;;;4.83;2.47;;;14.50;87.00;;;;;;5047800;28;20831;-75
2021/08/09 02:59:27;;;;;;;4.87;2.40;;;14.50;87.10;;;;;;5048088;28;20465;-76
2021/08/09 03:01:53;;;;;;;6.57;2.40;;;14.40;87.10;;;;;;5044469;28;20497;-76
2021/08/09 03:04:22;;;;;;;6.47;2.33;;;14.40;87.60;;;;;;5048155;28;20188;-75
2021/08/09 03:06:49;;;;;;;3.37;2.37;;;14.40;87.40;;;;;;5042899;28;20941;-75
2021/08/09 03:09:16;;;;;;;4.60;2.97;;;14.30;87.60;;;;;;5046943;28;20446;-76
2021/08/09 03:11:42;;;;;;;4.10;2.50;;;14.20;88.00;;;;;;5040758;28;20424;-75
2021/08/09 03:14:27;;;;;;;5.47;2.77;;;14.20;88.30;;;;;;5044420;28;20552;-75
2021/08/09 03:16:55;;;;;;;5.57;2.30;;;14.20;88.70;;;;;;5044667;28;20456;-74
2021/08/09 03:19:21;;;;;;;3.90;2.23;;;14.20;88.90;;;;;;5048352;28;20438;-75
2021/08/09 03:21:56;;;;;;;4.13;2.50;;;14.20;88.90;;;;;;5041446;28;20434;-76
2021/08/09 03:24:23;;;;;;;4.73;2.70;;;14.10;89.30;;;;;;5043617;28;20207;-74
2021/08/09 03:26:50;;;;;;;3.87;2.30;;;14.10;89.50;;;;;;5048597;28;20512;-74
2021/08/09 03:29:15;;;;;;;3.33;2.23;;;14.10;89.60;;;;;;5043829;28;20442;-75
2021/08/09 03:31:41;;;;;;;4.27;2.67;;;14.10;89.60;;;;;;5051972;28;20805;-75
2021/08/09 03:34:07;;;;;;;4.50;2.00;;;14.10;89.70;;;;;;5045253;28;20193;-75
2021/08/09 03:36:33;;;;;;;6.43;2.57;;;14.10;89.50;;;;;;5053225;28;20441;-75
2021/08/09 03:38:59;;;;;;;3.70;2.53;;;14.10;89.60;;;;;;5042819;28;20247;-75
2021/08/09 03:41:24;;;;;;;3.63;2.10;;;14.20;89.60;;;;;;5053262;28;20287;-74
2021/08/09 03:43:50;;;;;;;4.47;2.40;;;14.20;89.00;;;;;;5050868;28;20273;-74
2021/08/09 03:46:16;;;;;;;6.33;2.50;;;14.10;89.00;;;;;;5052594;28;20181;-74
2021/08/09 03:48:42;;;;;;;5.17;2.60;;;14.10;89.60;;;;;;5055808;28;20173;-76
2021/08/09 03:51:08;;;;;;;5.07;2.43;;;14.10;89.60;;;;;;5053564;28;20184;-75
2021/08/09 03:53:34;;;;;;;5.37;3.27;;;14.20;89.50;;;;;;5055209;28;20506;-74
2021/08/09 03:55:59;;;;;;;5.17;2.57;;;14.20;89.50;;;;;;5054595;28;20427;-75
2021/08/09 03:58:25;;;;;;;2.60;2.00;;;14.20;89.20;;;;;;5052786;28;20467;-74
2021/08/09 04:00:51;;;;;;;8.60;2.60;;;14.20;89.00;;;;;;5052897;28;20219;-75
2021/08/09 04:03:17;;;;;;;4.73;2.60;;;14.10;89.00;;;;;;5046731;28;20185;-74
2021/08/09 04:05:42;;;;;;;3.67;2.40;;;14.10;89.00;;;;;;5047486;28;20854;-75
2021/08/09 04:08:09;;;;;;;3.77;2.60;;;14.10;89.30;;;;;;5044057;28;20337;-74
2021/08/09 04:10:34;;;;;;;7.03;2.77;;;14.10;89.50;;;;;;5047591;28;20342;-75
2021/08/09 04:13:00;;;;;;;7.30;2.63;;;14.10;89.70;;;;;;5052683;28;20514;-75
2021/08/09 04:15:26;;;;;;;4.80;2.57;;;14.10;89.90;;;;;;5052225;28;20212;-74
2021/08/09 04:17:52;;;;;;;4.93;2.67;;;14.10;89.90;;;;;;5052498;28;20471;-74
2021/08/09 04:20:18;;;;;;;4.53;2.47;;;14.10;89.60;;;;;;5044840;28;20247;-74
2021/08/09 04:22:43;;;;;;;2.97;2.27;;;14.10;89.50;;;;;;5046520;28;20197;-74
2021/08/09 04:25:10;;;;;;;5.40;2.80;;;14.10;89.60;;;;;;5041027;28;20519;-74
2021/08/09 04:27:35;;;;;;;7.37;2.70;;;14.10;89.20;;;;;;5048007;28;20189;-75
2021/08/09 04:30:01;;;;;;;3.60;2.30;;;14.10;89.60;;;;;;5050827;28;20439;-74
2021/08/09 04:32:38;;;;;;;5.50;2.43;;;14.10;89.90;;;;;;5045212;28;20242;-75
2021/08/09 04:35:08;;;;;;;4.20;2.70;;;14.10;90.20;;;;;;5046766;28;20446;-76
2021/08/09 04:37:34;;;;;;;4.87;2.50;;;14.20;90.20;;;;;;5040497;28;20475;-75
2021/08/09 04:40:00;;;;;;;8.43;3.27;;;14.30;90.20;;;;;;5051951;28;20872;-77
2021/08/09 04:42:26;;;;;;;7.20;2.87;;;14.20;90.20;;;;;;5052089;28;20415;-76
2021/08/09 04:44:52;;;;;;;6.43;2.83;;;14.20;90.00;;;;;;5045247;28;20270;-74
2021/08/09 04:47:17;;;;;;;3.30;2.10;;;14.30;89.50;;;;;;5043978;28;20220;-76
2021/08/09 04:49:44;;;;;;;5.67;2.93;;;14.40;88.60;;;;;;5056162;28;20208;-74
2021/08/09 04:52:10;;;;;;;4.53;2.67;;;14.40;88.60;;;;;;5049518;28;20220;-75
2021/08/09 04:54:36;;;;;;;5.13;3.00;;;14.40;89.00;;;;;;5048647;28;20453;-74
2021/08/09 04:57:02;;;;;;;4.03;2.70;;;14.40;88.70;;;;;;5051500;28;20428;-74
2021/08/09 04:59:27;;;;;;;5.23;2.37;;;14.40;88.70;;;;;;5046983;28;20439;-77
2021/08/09 05:01:53;;;;;;;4.13;2.53;;;14.40;88.30;;;;;;5039692;28;20448;-75
2021/08/09 05:04:19;;;;;;;7.37;2.57;;;14.50;87.60;;;;;;5048580;28;20267;-75
2021/08/09 05:06:46;;;;;;;6.23;3.10;;;14.50;87.60;;;;;;5046516;28;20185;-75
2021/08/09 05:09:12;;;;;;;3.40;2.03;;;14.60;87.60;;;;;;5049612;28;20204;-77
2021/08/09 05:11:38;;;;;;;4.27;2.30;;;14.60;87.70;;;;;;5045255;28;20520;-76
2021/08/09 05:14:03;;;;;;;3.70;2.67;;;14.60;87.80;;;;;;5044816;28;20267;-74
2021/08/09 05:16:33;;;;;;;4.07;2.63;;;14.60;87.80;;;;;;5044623;28;20589;-76
2021/08/09 05:19:02;;;;;;;5.20;2.80;;;14.60;88.10;;;;;;5046645;28;20212;-74
2021/08/09 05:21:29;;;;;;;5.60;2.17;;;14.70;87.80;;;;;;5049869;28;20483;-75
2021/08/09 05:23:55;;;;;;;3.63;2.67;;;14.70;86.80;;;;;;5044717;28;20530;-75
2021/08/09 05:26:21;;;;;;;6.77;2.50;;;14.70;87.00;;;;;;5043198;28;20668;-75
2021/08/09 05:28:46;;;;;;;3.73;2.60;;;14.70;87.00;;;;;;5046463;28;20542;-74
2021/08/09 05:31:12;;;;;;;9.60;3.03;;;14.70;86.90;;;;;;5041210;28;20590;-74
2021/08/09 05:33:39;;;;;;;6.43;3.40;;;14.70;87.30;;;;;;5046493;28;20404;-75
2021/08/09 05:36:05;;;;;;;4.50;3.10;;;14.70;87.00;;;;;;5045250;28;20542;-75
2021/08/09 05:38:31;;;;;;;4.30;2.63;;;14.80;86.90;;;;;;5043502;28;21149;-74
2021/08/09 05:40:57;;;;;;;2.47;2.10;;;14.90;86.60;;;;;;5051044;28;20432;-74
2021/08/09 05:43:23;;;;;;;7.30;3.03;;;14.90;86.60;;;;;;5049760;28;20431;-75
2021/08/09 05:45:49;;;;;;;6.70;3.50;;;14.90;87.00;;;;;;5045686;28;20510;-73
2021/08/09 05:48:14;;;;;;;5.57;3.03;;;15.00;87.10;;;;;;5047919;28;20185;-74
2021/08/09 05:50:40;;;;;;;15.93;3.00;;;15.00;86.90;;;;;;5059589;28;20216;-73
2021/08/09 05:53:06;;;;;;;8.07;2.90;;;15.10;86.90;;;;;;5049174;28;20811;-74
2021/08/09 05:55:32;;;;;;;4.37;2.43;;;15.20;86.30;;;;;;5049678;28;20284;-73
2021/08/09 05:57:58;;;;;;;5.80;2.73;;;15.30;84.90;;;;;;5047230;28;20204;-76
2021/08/09 06:00:24;;;;;;;5.67;2.90;;;15.40;85.00;;;;;;5042619;28;20500;-75
2021/08/09 06:02:50;;;;;;;6.53;2.50;;;15.40;84.30;;;;;;5050780;28;20844;-77
2021/08/09 06:05:16;;;;;;;6.00;2.83;;;15.50;83.70;;;;;;5040572;28;20431;-74
2021/08/09 06:07:41;;;;;;;3.60;2.40;;;15.60;83.40;;;;;;5051022;28;20188;-73
2021/08/09 06:10:08;;;;;;;4.53;2.20;;;15.70;82.20;;;;;;5048932;28;20457;-73
2021/08/09 06:12:36;;;;;;;3.90;2.40;;;15.80;81.90;;;;;;5050489;28;20188;-74
2021/08/09 06:15:03;;;;;;;4.80;2.73;;;15.90;81.80;;;;;;5047846;28;20421;-75
2021/08/09 06:17:29;;;;;;;3.27;2.47;;;15.90;80.90;;;;;;5044548;28;20892;-74
2021/08/09 06:19:55;;;;;;;4.67;2.60;;;16.00;80.90;;;;;;5054934;28;20502;-73
2021/08/09 06:22:20;;;;;;;12.10;2.80;;;16.00;80.90;;;;;;5054051;28;20187;-73
2021/08/09 06:24:46;;;;;;;4.60;2.80;;;16.10;80.20;;;;;;5052986;28;20614;-74
2021/08/09 06:27:12;;;;;;;6.30;2.83;;;16.20;78.90;;;;;;5053991;28;20649;-74
2021/08/09 06:29:37;;;;;;;7.50;5.60;;;16.30;78.60;;;;;;5052595;28;20209;-74
2021/08/09 06:32:03;;;;;;;4.47;2.43;;;16.40;78.40;;;;;;5056769;28;20206;-72
2021/08/09 06:34:29;;;;;;;4.70;2.57;;;16.50;78.00;;;;;;5054803;28;20218;-73
2021/08/09 06:36:55;;;;;;;10.30;2.80;;;16.70;76.20;;;;;;5050605;28;20486;-75
2021/08/09 06:39:21;;;;;;;6.10;2.00;;;16.70;76.20;;;;;;5042844;28;20212;-74
2021/08/09 06:41:47;;;;;;;2.83;2.23;;;16.80;76.80;;;;;;5042479;28;20193;-75
2021/08/09 06:44:13;;;;;;;4.13;2.03;;;17.00;76.20;;;;;;5044768;28;20193;-73
2021/08/09 06:46:39;;;;;;;2.90;2.03;;;17.00;75.90;;;;;;5050239;28;20512;-74
2021/08/09 06:49:05;;;;;;;5.90;2.17;;;17.10;74.60;;;;;;5049085;28;20903;-73
2021/08/09 06:51:31;;;;;;;6.30;2.53;;;17.20;74.80;;;;;;5049834;28;20672;-75
2021/08/09 06:53:57;;;;;;;3.63;1.97;;;17.20;74.60;;;;;;5043694;28;20265;-73
2021/08/09 06:56:22;;;;;;;4.63;1.90;;;17.30;74.30;;;;;;5047887;28;20520;-74
2021/08/09 06:58:48;;;;;;;4.40;2.30;;;17.40;74.60;;;;;;5049793;28;20246;-74
2021/08/09 07:01:14;;;;;;;6.37;1.77;;;17.50;73.70;;;;;;5049123;28;20184;-75
2021/08/09 07:03:43;;;;;;;3.67;2.10;;;17.70;72.70;;;;;;5044366;28;20211;-74
2021/08/09 07:06:17;;;;;;;2.87;2.00;;;17.70;72.70;;;;;;5050171;28;20188;-73
2021/08/09 07:08:42;;;;;;;3.63;2.00;;;17.80;72.90;;;;;;5044248;28;20427;-75
2021/08/09 07:11:08;;;;;;;5.90;2.47;;;17.80;72.60;;;;;;5047125;28;20434;-75
2021/08/09 07:13:34;;;;;;;5.90;2.40;;;17.90;72.40;;;;;;5043815;28;20606;-74
2021/08/09 07:15:59;;;;;;;3.53;2.10;;;17.90;72.90;;;;;;5053868;28;20196;-74
2021/08/09 07:18:25;;;;;;;3.13;2.03;;;18.00;72.60;;;;;;5050053;28;20365;-74
2021/08/09 07:20:51;;;;;;;6.10;2.17;;;18.00;72.30;;;;;;5045732;28;20299;-74
2021/08/09 07:23:16;;;;;;;6.43;2.40;;;18.00;72.70;;;;;;5046900;28;20196;-74
2021/08/09 07:25:43;;;;;;;4.50;2.00;;;18.10;73.20;;;;;;5051264;28;20188;-74
2021/08/09 07:28:08;;;;;;;7.30;2.33;;;18.10;73.70;;;;;;5044643;28;20185;-74
2021/08/09 07:30:34;;;;;;;4.10;2.10;;;18.10;73.00;;;;;;5049875;28;20464;-73
2021/08/09 07:33:00;;;;;;;3.17;2.07;;;18.20;72.30;;;;;;5039998;28;20288;-74
2021/08/09 07:35:27;;;;;;;2.67;1.80;;;18.30;72.00;;;;;;5044540;28;20617;-74
2021/08/09 07:37:53;;;;;;;5.97;1.90;;;18.30;71.70;;;;;;5037385;28;20740;-75
2021/08/09 07:40:18;;;;;;;3.60;1.80;;;18.30;71.10;;;;;;5046444;28;20440;-73
2021/08/09 07:42:44;;;;;;;4.07;2.00;;;18.40;70.80;;;;;;5049530;28;20191;-74
2021/08/09 07:45:11;;;;;;;5.83;2.27;;;18.40;71.60;;;;;;5048481;28;20185;-74
2021/08/09 07:47:37;;;;;;;4.63;2.20;;;18.40;71.40;;;;;;5050718;28;20211;-74
2021/08/09 07:50:03;;;;;;;4.60;2.13;;;18.60;71.00;;;;;;5046196;28;20492;-74
2021/08/09 07:52:29;;;;;;;3.33;1.80;;;18.60;70.70;;;;;;5040044;28;20426;-73
2021/08/09 07:54:55;;;;;;;4.10;1.80;;;18.60;71.10;;;;;;5046179;28;20438;-73
2021/08/09 07:57:21;;;;;;;2.90;2.00;;;18.60;70.20;;;;;;5046661;28;20252;-74
2021/08/09 07:59:47;;;;;;;4.60;1.93;;;18.70;70.10;;;;;;5050228;28;20445;-74
2021/08/09 08:02:13;;;;;;;7.07;2.20;;;18.80;70.50;;;;;;5048556;28;20416;-75
2021/08/09 08:04:42;;;;;;;2.73;1.80;;;18.90;69.90;;;;;;5049007;28;20182;-75
2021/08/09 08:07:08;;;;;;;3.23;1.73;;;19.00;70.40;;;;;;5040711;28;20420;-73
2021/08/09 08:09:35;;;;;;;3.13;1.97;;;19.10;69.40;;;;;;5046701;28;20445;-73
2021/08/09 08:12:01;;;;;;;14.43;1.97;;;19.30;68.90;;;;;;5042083;28;20567;-74
2021/08/09 08:14:28;;;;;;;6.93;1.80;;;19.40;68.20;;;;;;5047498;28;20489;-74
2021/08/09 08:16:55;;;;;;;4.37;2.50;;;19.40;67.20;;;;;;5040395;28;20682;-73
2021/08/09 08:19:21;;;;;;;2.03;1.77;;;19.40;68.00;;;;;;5045950;28;20517;-74
2021/08/09 08:21:47;;;;;;;3.67;1.97;;;19.50;67.70;;;;;;5045731;28;20429;-74
2021/08/09 08:24:12;;;;;;;3.80;1.70;;;19.60;67.90;;;;;;5047313;28;20421;-74
2021/08/09 08:26:38;;;;;;;5.73;1.83;;;19.60;67.70;;;;;;5050133;28;20207;-74
2021/08/09 08:29:04;;;;;;;3.27;1.80;;;19.60;67.20;;;;;;5044894;28;20215;-76
2021/08/09 08:31:30;;;;;;;3.80;1.70;;;19.80;67.30;;;;;;5048335;28;20190;-74
2021/08/09 08:33:56;;;;;;;2.77;1.90;;;19.80;67.60;;;;;;5050353;28;20273;-74
2021/08/09 08:36:22;;;;;;;4.80;1.73;;;19.90;67.70;;;;;;5054542;28;20215;-74
2021/08/09 08:38:48;;;;;;;2.13;1.77;;;20.00;67.60;;;;;;5052154;28;20554;-74
2021/08/09 08:41:16;;;;;;;2.60;1.67;;;20.10;66.30;;;;;;5055242;28;20473;-75
2021/08/09 08:43:42;;;;;;;2.10;1.70;;;20.20;65.30;;;;;;5043206;28;20498;-74
2021/08/09 08:46:08;;;;;;;3.00;1.70;;;20.40;66.30;;;;;;5049356;28;20433;-74
2021/08/09 08:48:36;;;;;;;2.77;1.83;;;20.50;65.70;;;;;;5048277;28;20434;-73
2021/08/09 08:51:03;;;;;;;8.20;2.20;;;20.50;65.70;;;;;;5040188;28;20919;-75
2021/08/09 08:53:31;;;;;;;2.50;1.63;;;20.60;64.80;;;;;;5042522;28;20407;-74
2021/08/09 08:55:57;;;;;;;2.23;1.57;;;20.70;64.70;;;;;;5039240;28;20424;-75
2021/08/09 08:58:23;;;;;;;3.83;2.27;;;20.70;61.70;;;;;;5045215;28;20471;-74
2021/08/09 09:00:50;;;;;;;7.17;2.10;;;20.70;62.00;;;;;;5045262;28;20941;-75
2021/08/09 09:03:22;;;;;;;4.07;1.73;;;20.80;61.00;;;;;;5046780;28;20172;-73
2021/08/09 09:06:05;;;;;;;2.63;1.43;;;20.80;58.50;;;;;;5043051;28;20423;-74
2021/08/09 09:08:46;;;;;;;2.43;1.80;;;20.70;58.40;;;;;;5043972;28;20427;-75
2021/08/09 09:11:24;;;;;;;3.17;1.50;;;20.80;58.80;;;;;;5049889;28;20433;-74
2021/08/09 09:13:54;;;;;;;3.23;1.53;;;20.80;58.90;;;;;;5043827;28;20423;-75
2021/08/09 09:16:20;;;;;;;2.60;1.80;;;21.00;58.50;;;;;;5045917;28;20477;-75
2021/08/09 09:18:58;;;;;;;2.50;1.50;;;21.10;57.70;;;;;;5042955;28;21028;-75
2021/08/09 09:21:41;;;;;;;2.57;1.50;;;21.20;57.30;;;;;;5044041;28;20976;-74
2021/08/09 09:24:11;;;;;;;3.20;1.60;;;21.50;57.20;;;;;;5046311;28;20420;-75
2021/08/09 09:26:38;;;;;;;2.47;1.40;;;21.70;56.40;;;;;;5041953;28;20426;-74
2021/08/09 09:29:13;;;;;;;3.53;1.27;;;21.90;56.10;;;;;;5045404;28;21091;-74
2021/08/09 09:31:41;;;;;;;3.07;1.60;;;22.00;54.50;;;;;;5041004;28;20427;-74
2021/08/09 09:34:12;;;;;;;2.53;1.50;;;22.00;54.80;;;;;;5049729;28;20906;-75
2021/08/09 09:36:50;;;;;;;4.90;1.43;;;22.10;54.00;;;;;;5047237;28;20448;-74
2021/08/09 09:39:32;;;;;;;5.60;1.47;;;22.10;54.50;;;;;;5045119;28;20473;-74
2021/08/09 09:42:01;;;;;;;3.13;1.23;;;22.10;53.80;;;;;;5046137;28;21012;-75
2021/08/09 09:44:29;;;;;;;1.77;1.30;;;22.00;53.60;;;;;;5047212;28;20417;-74
2021/08/09 09:47:20;;;;;;;2.93;1.53;;;22.00;53.40;;;;;;5051036;28;20502;-74
2021/08/09 09:49:54;;;;;;;2.97;1.37;;;21.90;54.00;;;;;;5039719;28;20448;-74
2021/08/09 09:52:45;;;;;;;5.50;1.60;;;22.00;54.50;;;;;;5040255;28;20438;-73
2021/08/09 09:55:12;;;;;;;4.03;1.70;;;22.00;53.80;;;;;;5043769;28;20520;-75
2021/08/09 09:57:39;;;;;;;4.30;1.70;;;21.90;54.50;;;;;;5050670;28;21829;-74
2021/08/09 10:00:09;;;;;;;6.20;1.50;;;22.00;54.60;;;;;;5046173;28;20483;-74
2021/08/09 10:02:34;;;;;;;3.30;1.63;;;22.10;54.00;;;;;;5047767;28;20425;-75
2021/08/09 10:05:01;;;;;;;2.63;1.73;;;22.20;53.80;;;;;;5049409;28;20465;-75
2021/08/09 10:07:28;;;;;;;3.07;1.70;;;22.20;53.80;;;;;;5046021;28;20187;-74
2021/08/09 10:09:55;;;;;;;3.83;1.50;;;22.30;54.40;;;;;;5050202;28;20977;-74
2021/08/09 10:12:28;;;;;;;3.10;1.80;;;22.50;54.00;;;;;;5045055;28;20788;-74
2021/08/09 10:14:55;;;;;;;3.03;1.53;;;22.50;53.40;;;;;;5044807;28;20446;-75
2021/08/09 10:17:23;;;;;;;2.93;1.70;;;22.60;52.60;;;;;;5050489;28;20485;-74
2021/08/09 10:19:52;;;;;;;2.27;1.53;;;22.90;53.20;;;;;;5041963;28;20442;-75
2021/08/09 10:22:19;;;;;;;2.23;1.80;;;23.40;52.20;;;;;;5046802;28;20807;-75
2021/08/09 10:24:45;;;;;;;3.10;1.90;;;23.40;51.80;;;;;;5039254;28;20424;-74
2021/08/09 10:27:11;;;;;;;2.90;1.87;;;23.60;51.80;;;;;;5045356;28;20430;-74
2021/08/09 10:30:00;;;;;;;4.63;1.80;;;23.60;52.40;;;;;;5042463;28;20540;-75
2021/08/09 10:32:26;;;;;;;3.97;1.70;;;24.10;51.60;;;;;;5042287;28;20191;-74
2021/08/09 10:34:52;;;;;;;2.40;1.77;;;24.30;51.00;;;;;;5041584;28;20441;-75
2021/08/09 10:37:20;;;;;;;2.70;1.80;;;24.30;50.90;;;;;;5042713;28;20187;-74
2021/08/09 10:39:57;;;;;;;1.97;1.50;;;24.50;50.50;;;;;;5042555;28;20495;-74
2021/08/09 10:42:37;;;;;;;2.50;1.57;;;24.60;50.30;;;;;;5043044;28;20422;-74
2021/08/09 10:45:13;;;;;;;3.17;1.90;;;25.10;49.90;;;;;;5040874;28;20432;-76
2021/08/09 10:47:45;;;;;;;3.47;1.87;;;25.30;49.30;;;;;;5043269;28;20940;-74
2021/08/09 10:50:31;;;;;;;4.60;2.10;;;24.90;49.40;;;;;;5049694;28;21030;-74
2021/08/09 10:52:58;;;;;;;6.97;2.20;;;24.80;49.30;;;;;;5049000;28;20466;-74
2021/08/09 10:55:29;;;;;;;4.60;2.60;;;24.60;50.10;;;;;;5042632;28;20439;-74
2021/08/09 10:57:56;;;;;;;2.70;1.70;;;24.50;48.90;;;;;;5049607;28;20842;-75
2021/08/09 11:00:40;;;;;;;2.60;2.00;;;24.60;49.40;;;;;;5040333;28;20455;-74
2021/08/09 11:03:16;;;;;;;3.43;1.67;;;24.50;49.40;;;;;;5049483;28;20924;-74
2021/08/09 11:05:42;;;;;;;2.87;2.10;;;24.70;49.10;;;;;;5049209;28;20452;-75
2021/08/09 11:08:20;;;;;;;4.57;2.00;;;25.10;49.70;;;;;;5049366;28;20428;-74
2021/08/09 11:10:54;;;;;;;2.37;1.93;;;25.10;48.60;;;;;;5049149;28;20232;-73
2021/08/09 11:13:24;;;;;;;2.67;1.90;;;24.90;49.90;;;;;;5048148;28;20976;-73
2021/08/09 11:16:00;;;;;;;5.70;2.20;;;25.00;49.00;;;;;;5049248;28;20921;-73
2021/08/09 11:18:28;;;;;;;4.30;2.07;;;25.30;47.90;;;;;;5044742;28;20455;-74
2021/08/09 11:21:08;;;;;;;2.27;1.60;;;25.40;48.30;;;;;;5040428;28;20461;-74
2021/08/09 11:23:42;;;;;;;3.63;2.10;;;25.70;47.90;;;;;;5035572;28;20524;-74
2021/08/09 11:26:21;;;;;;;3.13;2.03;;;25.80;47.50;;;;;;5049306;28;20424;-74
2021/08/09 11:29:05;;;;;;;6.17;2.60;;;25.40;48.20;;;;;;5047692;28;20433;-75
2021/08/09 11:31:45;;;;;;;3.10;1.80;;;24.90;49.70;;;;;;5041200;28;20423;-73
2021/08/09 11:34:11;;;;;;;3.33;1.73;;;24.60;49.80;;;;;;5048474;28;20470;-74
2021/08/09 11:36:37;;;;;;;2.13;1.70;;;24.30;50.50;;;;;;5043411;28;20461;-76
2021/08/09 11:39:04;;;;;;;2.67;2.07;;;24.40;49.90;;;;;;5041474;28;20466;-73
2021/08/09 11:41:31;;;;;;;2.60;1.80;;;24.60;50.10;;;;;;5049180;28;20184;-75
2021/08/09 11:44:08;;;;;;;3.50;1.80;;;24.90;47.80;;;;;;5049107;28;20515;-74
2021/08/09 11:46:45;;;;;;;2.93;1.90;;;24.80;47.80;;;;;;5043343;28;20471;-74
2021/08/09 11:49:11;;;;;;;3.73;1.97;;;25.00;48.10;;;;;;5052640;28;20999;-73
2021/08/09 11:51:36;;;;;;;2.37;1.80;;;25.40;47.50;;;;;;5053453;28;20449;-73
2021/08/09 11:54:02;;;;;;;2.83;1.70;;;25.60;46.90;;;;;;5051759;28;20188;-73
2021/08/09 11:56:35;;;;;;;3.73;2.20;;;25.60;45.10;;;;;;5052883;28;20193;-74
2021/08/09 11:59:15;;;;;;;3.23;1.67;;;25.10;46.20;;;;;;5049329;28;20202;-75
2021/08/09 12:01:47;;;;;;;9.73;2.47;;;25.20;44.70;;;;;;5053516;28;20415;-74
2021/08/09 12:04:14;;;;;;;3.53;2.07;;;25.20;46.20;;;;;;5052642;28;20765;-73
2021/08/09 12:06:57;;;;;;;5.53;1.80;;;25.30;46.70;;;;;;5054628;28;20944;-73
2021/08/09 12:09:38;;;;;;;2.60;1.70;;;25.30;45.40;;;;;;5052766;28;20464;-76
2021/08/09 12:12:15;;;;;;;3.70;1.87;;;25.10;45.50;;;;;;5049633;28;20872;-73
2021/08/09 12:14:42;;;;;;;2.67;1.97;;;25.20;46.10;;;;;;5053108;28;21124;-73
2021/08/09 12:17:13;;;;;;;2.73;1.80;;;25.50;45.00;;;;;;5053359;28;20842;-75
2021/08/09 12:19:50;;;;;;;2.73;2.03;;;25.50;45.80;;;;;;5053068;28;20464;-75
2021/08/09 12:22:16;;;;;;;3.57;1.80;;;25.70;43.90;;;;;;5050827;28;20996;-74
2021/08/09 12:24:44;;;;;;;5.33;1.80;;;25.90;43.40;;;;;;5051822;28;20467;-74
2021/08/09 12:27:19;;;;;;;2.77;2.10;;;26.40;44.60;;;;;;5052687;28;20790;-75
2021/08/09 12:30:01;;;;;;;4.70;1.90;;;26.50;41.40;;;;;;5046685;28;20514;-73
2021/08/09 12:32:28;;;;;;;2.00;1.80;;;26.90;41.50;;;;;;5051776;28;20785;-73
2021/08/09 12:34:54;;;;;;;3.17;1.80;;;27.10;40.60;;;;;;5049014;28;20925;-73
2021/08/09 12:37:20;;;;;;;5.67;2.40;;;27.40;40.80;;;;;;5045345;28;20997;-74
2021/08/09 12:39:45;;;;;;;2.73;2.30;;;27.30;40.30;;;;;;5044407;28;20620;-72
2021/08/09 12:42:17;;;;;;;3.53;1.40;;;26.80;41.40;;;;;;5052332;28;20185;-72
2021/08/09 12:44:43;;;;;;;2.87;2.17;;;26.40;42.60;;;;;;5051887;28;20182;-73
2021/08/09 12:47:09;;;;;;;2.60;1.70;;;26.30;42.20;;;;;;5045728;28;20512;-73
2021/08/09 12:49:35;;;;;;;3.00;1.63;;;25.80;42.20;;;;;;5050613;28;20613;-73
2021/08/09 12:52:01;;;;;;;4.40;2.30;;;25.80;43.70;;;;;;5051585;28;20927;-72
2021/08/09 12:54:27;;;;;;;3.20;1.90;;;25.90;43.10;;;;;;5051100;28;20178;-75